Weather at Prosser Airport

Public forecast

Using degrees Fahrenheit for public forecast. Weather courtesy of forecast.io.

Closest aviation weather report (METAR) to Prosser Airport

Report is more than 6 hours old.

Closest report is Sunnyside Municipal Airport, 10.1 nm (18.7 km) NW.

2022/11/14 15:35 (retrieved 2 years ago)

K1S5 141535Z AUTO 00000KT 10SM CLR M06/M07 A3052 RMK AO2 T10581069

Closest aviation forecast (TAF) to Prosser Airport

Forecast is more than 12 hours old.

Closest forecast is Tri Cities Airport, 28.1 nm (52.0 km) E.

2023/02/22 20:12 Ammendment (retrieved 1 year ago)

TAF AMD KPSC 222011Z 2220/2318 35017G24KT P6SM OVC020 TEMPO 2220/2222 1/2SM SN FM222300 35018G25KT P6SM OVC030 FM230000 35017G23KT P6SM BKN040 BKN070 FM231200 30022G29KT P6SM OVC050 FM231500 31018G25KT P6SM OVC050 FM231700 34016G22KT P6SM OVC050